Time;durP1;ratioP1;P1;durP2;ratioP2;P2;SDS_P1;SDS_P2;PMS_P1;PMS_P2;Temp;Humidity;BMP_temperature;BMP_pressure;BME280_temperature;BME280_humidity;BME280_pressure;Samples;Min_cycle;Max_cycle;Signal;HPM_P1;HPM_P2
2022/10/31 00:01:33;;;;;;;15.10;12.30;;;;;;;;;;5011445;28;20037;-73
2022/10/31 00:03:59;;;;;;;16.08;11.80;;;;;;;;;;5006973;28;20037;-74
2022/10/31 00:06:25;;;;;;;18.52;12.07;;;;;;;;;;5003491;28;20097;-74
2022/10/31 00:08:59;;;;;;;16.75;12.10;;;;;;;;;;5009205;28;20037;-74
2022/10/31 00:11:25;;;;;;;14.07;12.40;;;;;;;;;;5009823;28;20041;-74
2022/10/31 00:13:50;;;;;;;13.73;11.52;;;;;;;;;;5001781;28;20037;-74
2022/10/31 00:16:21;;;;;;;12.63;11.13;;;;;;;;;;5006170;28;20042;-74
2022/10/31 00:18:51;;;;;;;13.82;11.63;;;;;;;;;;5005271;28;20096;-74
2022/10/31 00:21:17;;;;;;;16.23;11.60;;;;;;;;;;5005338;28;20046;-73
2022/10/31 00:23:43;;;;;;;13.32;11.55;;;;;;;;;;5002704;28;20101;-73
2022/10/31 00:26:08;;;;;;;12.63;11.43;;;;;;;;;;5008316;28;20026;-73
2022/10/31 00:28:34;;;;;;;13.13;11.82;;;;;;;;;;5006835;28;20083;-73
2022/10/31 00:31:05;;;;;;;13.95;11.73;;;;;;;;;;5003276;28;20038;-73
2022/10/31 00:33:34;;;;;;;13.70;10.98;;;;;;;;;;5001222;28;20100;-73
2022/10/31 00:36:00;;;;;;;17.65;11.75;;;;;;;;;;5008510;28;20022;-73
2022/10/31 00:38:25;;;;;;;15.23;12.23;;;;;;;;;;5008179;28;20029;-73
2022/10/31 00:40:51;;;;;;;15.70;12.63;;;;;;;;;;5005930;28;20441;-73
2022/10/31 00:43:17;;;;;;;13.70;11.25;;;;;;;;;;5003660;28;20125;-73
2022/10/31 00:45:42;;;;;;;12.35;11.05;;;;;;;;;;5006090;28;20038;-73
2022/10/31 00:48:08;;;;;;;14.18;11.48;;;;;;;;;;5006838;28;20037;-73
2022/10/31 00:50:34;;;;;;;18.02;11.75;;;;;;;;;;5005269;28;20049;-73
2022/10/31 00:53:00;;;;;;;15.10;11.82;;;;;;;;;;5006848;28;20045;-73
2022/10/31 00:55:25;;;;;;;13.25;11.25;;;;;;;;;;4996514;28;20435;-73
2022/10/31 00:57:52;;;;;;;16.60;11.65;;;;;;;;;;5004087;28;20037;-73
2022/10/31 01:00:18;;;;;;;15.15;11.18;;;;;;;;;;5005298;28;20029;-73
2022/10/31 01:02:44;;;;;;;15.10;11.27;;;;;;;;;;4990506;28;20485;-73
2022/10/31 01:05:10;;;;;;;14.40;11.15;;;;;;;;;;5005301;28;20064;-73
2022/10/31 01:07:40;;;;;;;11.77;10.55;;;;;;;;;;5003203;28;20627;-73
2022/10/31 01:10:09;;;;;;;16.23;10.65;;;;;;;;;;5006872;28;20091;-73
2022/10/31 01:12:43;;;;;;;11.75;10.07;;;;;;;;;;5005370;28;20044;-73
2022/10/31 01:15:12;;;;;;;12.50;10.52;;;;;;;;;;5005598;28;20477;-73
2022/10/31 01:17:38;;;;;;;12.40;11.07;;;;;;;;;;5005807;28;20038;-73
2022/10/31 01:20:06;;;;;;;12.60;10.82;;;;;;;;;;5010412;28;20033;-73
2022/10/31 01:22:32;;;;;;;13.23;11.57;;;;;;;;;;5000817;28;20026;-73
2022/10/31 01:25:00;;;;;;;14.93;11.23;;;;;;;;;;5004697;28;20470;-75
2022/10/31 01:27:25;;;;;;;14.77;11.45;;;;;;;;;;5003914;28;20109;-73
2022/10/31 01:29:51;;;;;;;14.05;11.88;;;;;;;;;;5004938;28;20034;-74
2022/10/31 01:32:17;;;;;;;12.70;11.45;;;;;;;;;;5004981;28;20378;-73
2022/10/31 01:34:44;;;;;;;12.63;11.40;;;;;;;;;;5006665;28;20033;-74
2022/10/31 01:37:12;;;;;;;13.60;11.50;;;;;;;;;;5005240;28;20042;-74
2022/10/31 01:39:38;;;;;;;15.80;11.63;;;;;;;;;;5002182;28;20035;-73
2022/10/31 01:42:03;;;;;;;13.02;10.95;;;;;;;;;;5004404;28;20057;-73
2022/10/31 01:44:29;;;;;;;14.15;11.40;;;;;;;;;;5006612;28;20037;-73
2022/10/31 01:47:03;;;;;;;14.73;11.43;;;;;;;;;;5000466;28;20465;-73
2022/10/31 01:49:39;;;;;;;14.40;11.48;;;;;;;;;;5004502;28;20032;-73
2022/10/31 01:52:11;;;;;;;15.35;11.65;;;;;;;;;;5006418;28;20429;-73
2022/10/31 01:54:41;;;;;;;16.20;11.48;;;;;;;;;;5006133;28;20042;-73
2022/10/31 01:57:10;;;;;;;12.00;10.77;;;;;;;;;;5003690;28;20134;-73
2022/10/31 01:59:42;;;;;;;12.82;11.73;;;;;;;;;;5002213;28;20104;-73
2022/10/31 02:02:07;;;;;;;16.20;11.23;;;;;;;;;;5006210;28;20037;-73
2022/10/31 02:04:34;;;;;;;17.25;11.10;;;;;;;;;;5009359;28;20038;-73
2022/10/31 02:07:08;;;;;;;13.73;11.55;;;;;;;;;;5002554;28;20042;-73
2022/10/31 02:09:35;;;;;;;11.90;10.80;;;;;;;;;;5009992;28;20539;-73
2022/10/31 02:12:01;;;;;;;13.32;11.05;;;;;;;;;;5007265;28;20064;-73
2022/10/31 02:14:30;;;;;;;12.57;10.93;;;;;;;;;;5007539;28;20085;-73
2022/10/31 02:16:57;;;;;;;17.75;12.55;;;;;;;;;;5004621;28;20080;-73
2022/10/31 02:19:53;;;;;;;14.15;10.85;;;;;;;;;;5013119;28;20041;-73
2022/10/31 02:23:18;;;;;;;15.50;10.93;;;;;;;;;;5008124;28;20094;-73
2022/10/31 02:26:05;;;;;;;13.07;11.02;;;;;;;;;;5003179;28;20533;-73
2022/10/31 02:28:46;;;;;;;13.35;11.88;;;;;;;;;;5011280;28;20045;-73
2022/10/31 02:31:44;;;;;;;13.65;11.25;;;;;;;;;;5008250;28;20034;-73
2022/10/31 02:34:09;;;;;;;11.98;10.55;;;;;;;;;;5007689;28;20025;-73
2022/10/31 02:36:58;;;;;;;14.80;10.95;;;;;;;;;;5006566;28;20084;-73
2022/10/31 02:39:34;;;;;;;15.20;11.52;;;;;;;;;;5022810;28;20173;-73
2022/10/31 02:42:33;;;;;;;11.13;10.00;;;;;;;;;;5010687;28;20112;-73
2022/10/31 02:45:06;;;;;;;15.65;11.52;;;;;;;;;;5000216;28;20030;-73
2022/10/31 02:47:36;;;;;;;12.10;10.80;;;;;;;;;;5003560;28;20536;-73
2022/10/31 02:50:19;;;;;;;11.55;10.43;;;;;;;;;;5009069;28;20056;-74
2022/10/31 02:52:51;;;;;;;12.70;11.18;;;;;;;;;;5009636;28;20036;-73
2022/10/31 02:55:26;;;;;;;12.07;10.95;;;;;;;;;;5001402;28;20038;-73
2022/10/31 02:58:04;;;;;;;13.63;11.07;;;;;;;;;;5006973;28;20029;-73
2022/10/31 03:00:37;;;;;;;15.52;10.60;;;;;;;;;;4995084;28;20049;-73
2022/10/31 03:03:24;;;;;;;15.07;10.45;;;;;;;;;;5006948;28;20038;-73
2022/10/31 03:06:07;;;;;;;16.52;10.35;;;;;;;;;;5004532;28;20030;-73
2022/10/31 03:08:35;;;;;;;18.20;10.70;;;;;;;;;;5005644;28;20030;-73
2022/10/31 03:11:04;;;;;;;10.65;9.60;;;;;;;;;;5002975;28;20038;-73
2022/10/31 03:13:57;;;;;;;13.25;10.88;;;;;;;;;;5006058;28;20038;-73
2022/10/31 03:16:32;;;;;;;15.73;11.80;;;;;;;;;;5001936;28;20062;-73
2022/10/31 03:19:07;;;;;;;19.30;11.88;;;;;;;;;;5003363;28;20038;-73
2022/10/31 03:21:45;;;;;;;14.95;10.55;;;;;;;;;;5006350;28;20045;-73
2022/10/31 03:24:13;;;;;;;14.88;11.32;;;;;;;;;;5005078;28;20080;-73
2022/10/31 03:26:47;;;;;;;11.87;10.63;;;;;;;;;;5006438;28;20464;-73
2022/10/31 03:29:16;;;;;;;11.80;10.65;;;;;;;;;;5006763;28;20096;-73
2022/10/31 03:31:57;;;;;;;17.60;10.48;;;;;;;;;;5005366;28;20026;-73
2022/10/31 03:34:23;;;;;;;18.83;10.77;;;;;;;;;;5004412;28;20113;-73
2022/10/31 03:36:51;;;;;;;11.32;10.27;;;;;;;;;;5007637;28;20121;-73
2022/10/31 03:39:20;;;;;;;16.08;10.30;;;;;;;;;;5023388;28;20668;-73
2022/10/31 03:42:09;;;;;;;12.50;11.27;;;;;;;;;;5005910;28;20036;-73
2022/10/31 03:44:38;;;;;;;14.27;10.68;;;;;;;;;;5005471;28;20721;-73
2022/10/31 03:47:04;;;;;;;11.32;10.20;;;;;;;;;;5001483;28;20041;-73
2022/10/31 03:49:31;;;;;;;11.55;10.32;;;;;;;;;;5007822;28;20031;-73
2022/10/31 03:52:16;;;;;;;11.85;10.63;;;;;;;;;;5000224;28;20038;-73
2022/10/31 03:54:43;;;;;;;12.82;10.10;;;;;;;;;;5006244;28;20034;-73
2022/10/31 03:57:22;;;;;;;14.73;10.65;;;;;;;;;;4999511;28;20037;-73
2022/10/31 03:59:55;;;;;;;12.07;10.90;;;;;;;;;;5002897;28;20055;-73
2022/10/31 04:02:25;;;;;;;11.63;10.25;;;;;;;;;;5002879;28;20108;-73
2022/10/31 04:04:51;;;;;;;13.38;10.57;;;;;;;;;;5003473;28;20038;-72
2022/10/31 04:07:18;;;;;;;11.30;10.13;;;;;;;;;;5011336;28;20041;-73
2022/10/31 04:09:46;;;;;;;11.65;10.48;;;;;;;;;;5004859;28;21045;-73
2022/10/31 04:12:15;;;;;;;11.68;10.25;;;;;;;;;;5005773;28;20034;-73
2022/10/31 04:15:03;;;;;;;12.40;10.57;;;;;;;;;;5007416;28;20042;-73
2022/10/31 04:17:33;;;;;;;12.05;10.90;;;;;;;;;;5004060;28;20038;-73
2022/10/31 04:20:00;;;;;;;12.13;10.23;;;;;;;;;;5001448;28;20482;-73
2022/10/31 04:22:27;;;;;;;13.38;11.18;;;;;;;;;;5003335;28;20497;-73
2022/10/31 04:24:52;;;;;;;11.57;10.38;;;;;;;;;;5005259;28;20046;-73
2022/10/31 04:27:18;;;;;;;10.77;9.68;;;;;;;;;;5005019;28;20104;-73
2022/10/31 04:29:44;;;;;;;11.40;10.35;;;;;;;;;;5007039;28;20088;-73
2022/10/31 04:32:11;;;;;;;14.00;10.50;;;;;;;;;;5003391;28;20544;-73
2022/10/31 04:34:37;;;;;;;14.50;9.93;;;;;;;;;;5008209;28;20038;-73
2022/10/31 04:37:04;;;;;;;10.73;9.73;;;;;;;;;;5004668;28;20042;-73
2022/10/31 04:39:30;;;;;;;13.55;10.48;;;;;;;;;;5007632;28;20045;-72
2022/10/31 04:42:19;;;;;;;12.93;9.85;;;;;;;;;;5015537;28;20125;-72
2022/10/31 04:44:44;;;;;;;11.77;10.10;;;;;;;;;;5003341;28;20437;-73
2022/10/31 04:47:10;;;;;;;11.32;10.23;;;;;;;;;;5003457;28;20089;-72
2022/10/31 04:49:36;;;;;;;14.73;10.48;;;;;;;;;;5004377;28;20105;-73
2022/10/31 04:52:01;;;;;;;11.00;9.98;;;;;;;;;;5004850;28;20223;-72
2022/10/31 04:54:27;;;;;;;13.82;10.73;;;;;;;;;;5004294;28;20066;-73
2022/10/31 04:57:31;;;;;;;11.27;10.27;;;;;;;;;;5010566;28;20045;-73
2022/10/31 05:00:00;;;;;;;12.05;10.93;;;;;;;;;;5000133;28;20042;-72
2022/10/31 05:02:26;;;;;;;18.15;12.00;;;;;;;;;;5003110;28;20049;-72
2022/10/31 05:04:55;;;;;;;16.58;12.07;;;;;;;;;;4996538;28;20038;-73
2022/10/31 05:07:20;;;;;;;15.73;11.07;;;;;;;;;;5001980;28;20040;-73
2022/10/31 05:09:46;;;;;;;12.38;11.18;;;;;;;;;;5007504;28;20367;-73
2022/10/31 05:12:12;;;;;;;12.85;11.15;;;;;;;;;;5005791;28;20041;-73
2022/10/31 05:14:56;;;;;;;12.18;10.85;;;;;;;;;;5005634;28;20543;-73
2022/10/31 05:17:43;;;;;;;18.33;11.13;;;;;;;;;;5024125;28;20108;-73
2022/10/31 05:20:40;;;;;;;11.82;10.57;;;;;;;;;;5004011;28;20087;-73
2022/10/31 05:23:14;;;;;;;12.07;10.10;;;;;;;;;;5005637;28;20538;-73
2022/10/31 05:25:41;;;;;;;16.08;10.25;;;;;;;;;;5000775;28;20042;-73
2022/10/31 05:28:07;;;;;;;16.35;10.27;;;;;;;;;;5003819;28;20496;-73
2022/10/31 05:30:34;;;;;;;13.15;10.90;;;;;;;;;;5003905;28;20030;-73
2022/10/31 05:33:00;;;;;;;12.65;11.35;;;;;;;;;;5008559;28;20393;-73
2022/10/31 05:35:32;;;;;;;11.95;10.93;;;;;;;;;;5004388;28;20042;-73
2022/10/31 05:38:16;;;;;;;14.85;11.02;;;;;;;;;;5007797;28;20393;-73
2022/10/31 05:40:43;;;;;;;12.68;10.43;;;;;;;;;;5008353;28;20615;-73
2022/10/31 05:43:09;;;;;;;11.73;10.73;;;;;;;;;;5010756;28;20113;-73
2022/10/31 05:45:35;;;;;;;11.40;10.40;;;;;;;;;;5013277;28;20034;-73
2022/10/31 05:48:05;;;;;;;14.50;11.60;;;;;;;;;;5004813;28;20109;-73
2022/10/31 05:51:00;;;;;;;17.67;10.88;;;;;;;;;;5039702;28;20041;-77
2022/10/31 05:53:25;;;;;;;11.88;10.65;;;;;;;;;;5009390;28;20121;-76
2022/10/31 05:55:51;;;;;;;13.02;11.23;;;;;;;;;;5006873;28;20043;-76
2022/10/31 05:58:19;;;;;;;11.05;9.95;;;;;;;;;;5008725;28;20037;-75
2022/10/31 06:00:53;;;;;;;18.38;11.35;;;;;;;;;;5009236;28;20042;-76
2022/10/31 06:03:19;;;;;;;11.73;10.63;;;;;;;;;;4995498;28;20041;-76
2022/10/31 06:05:46;;;;;;;12.20;11.00;;;;;;;;;;4996862;28;20033;-77
2022/10/31 06:08:12;;;;;;;12.10;11.00;;;;;;;;;;5009114;28;20039;-77
2022/10/31 06:10:39;;;;;;;12.60;11.02;;;;;;;;;;5003625;28;20044;-77
2022/10/31 06:13:06;;;;;;;15.00;11.50;;;;;;;;;;5009282;28;20029;-76
2022/10/31 06:15:58;;;;;;;11.43;10.43;;;;;;;;;;5011366;28;20046;-77
2022/10/31 06:18:29;;;;;;;12.00;10.88;;;;;;;;;;5005781;28;20080;-78
2022/10/31 06:20:55;;;;;;;12.50;10.05;;;;;;;;;;5008227;28;20034;-77
2022/10/31 06:23:22;;;;;;;11.40;10.20;;;;;;;;;;5011777;28;20072;-77
2022/10/31 06:25:52;;;;;;;11.57;10.30;;;;;;;;;;5007568;28;20113;-77
2022/10/31 06:28:18;;;;;;;12.93;10.13;;;;;;;;;;5006722;28;20034;-76
2022/10/31 06:30:58;;;;;;;21.92;12.15;;;;;;;;;;5006399;28;20042;-75
2022/10/31 06:33:24;;;;;;;15.88;12.57;;;;;;;;;;5008553;28;20108;-76
2022/10/31 06:35:55;;;;;;;12.13;10.98;;;;;;;;;;5004861;28;20042;-75
2022/10/31 06:38:22;;;;;;;11.27;10.18;;;;;;;;;;5009413;28;20045;-76
2022/10/31 06:40:47;;;;;;;10.68;9.60;;;;;;;;;;5009150;28;20038;-76
2022/10/31 06:43:25;;;;;;;11.85;10.38;;;;;;;;;;5012056;28;20045;-76
2022/10/31 06:46:06;;;;;;;19.92;10.40;;;;;;;;;;5008297;28;20134;-76
2022/10/31 06:48:42;;;;;;;11.80;10.55;;;;;;;;;;5006453;28;20030;-77
2022/10/31 06:51:30;;;;;;;18.33;10.40;;;;;;;;;;5010906;28;20045;-76
2022/10/31 06:53:56;;;;;;;11.90;10.80;;;;;;;;;;5011924;28;20041;-76
2022/10/31 06:56:25;;;;;;;12.75;10.77;;;;;;;;;;5007590;28;20042;-76
2022/10/31 06:58:54;;;;;;;12.35;10.63;;;;;;;;;;5011429;28;20092;-76
2022/10/31 07:01:35;;;;;;;11.65;10.52;;;;;;;;;;4999331;28;20034;-76
2022/10/31 07:04:01;;;;;;;11.05;9.77;;;;;;;;;;4995026;28;20042;-77
2022/10/31 07:06:30;;;;;;;;;;;;;;;;;;5000641;28;20041;-76
2022/10/31 07:08:55;;;;;;;11.80;10.70;;;;;;;;;;5006488;28;19913;-76
2022/10/31 07:11:22;;;;;;;11.60;10.50;;;;;;;;;;4999910;28;20034;-76
2022/10/31 07:13:47;;;;;;;13.73;11.10;;;;;;;;;;4994456;28;20511;-76
2022/10/31 07:16:14;;;;;;;11.93;10.77;;;;;;;;;;5006213;28;20289;-76
2022/10/31 07:18:41;;;;;;;15.07;10.80;;;;;;;;;;4993166;28;20614;-78
2022/10/31 07:21:08;;;;;;;17.77;11.35;;;;;;;;;;5007141;28;20037;-78
2022/10/31 07:23:33;;;;;;;19.27;11.50;;;;;;;;;;5007497;28;20038;-78
2022/10/31 07:26:21;;;;;;;13.57;10.73;;;;;;;;;;5006980;28;20045;-77
2022/10/31 07:28:48;;;;;;;14.38;10.18;;;;;;;;;;5005833;28;20030;-78
2022/10/31 07:31:14;;;;;;;14.15;10.38;;;;;;;;;;5003162;28;20046;-78
2022/10/31 07:33:40;;;;;;;12.70;10.63;;;;;;;;;;5010359;28;20083;-78
2022/10/31 07:36:26;;;;;;;12.65;10.52;;;;;;;;;;5022904;28;20049;-77
2022/10/31 07:38:55;;;;;;;12.65;11.18;;;;;;;;;;5000122;28;20112;-77
2022/10/31 07:41:21;;;;;;;12.88;10.20;;;;;;;;;;5005611;28;20177;-77
2022/10/31 07:43:47;;;;;;;13.95;9.90;;;;;;;;;;4988437;28;20116;-77
2022/10/31 07:46:33;;;;;;;10.43;8.85;;;;;;;;;;4996387;28;20046;-77
2022/10/31 07:49:27;;;;;;;12.23;9.82;;;;;;;;;;5002403;28;20133;-77
2022/10/31 07:51:58;;;;;;;10.98;9.48;;;;;;;;;;5002116;28;20034;-77
2022/10/31 07:54:53;;;;;;;10.88;9.88;;;;;;;;;;5002756;28;20052;-77
2022/10/31 07:57:22;;;;;;;11.40;10.27;;;;;;;;;;5003535;28;20069;-78
2022/10/31 07:59:48;;;;;;;10.93;9.82;;;;;;;;;;5009079;28;20168;-77
2022/10/31 08:02:16;;;;;;;10.60;9.63;;;;;;;;;;5008183;28;20034;-77
2022/10/31 08:04:41;;;;;;;11.55;9.73;;;;;;;;;;5005311;28;20038;-77
2022/10/31 08:07:19;;;;;;;11.10;10.02;;;;;;;;;;5004792;28;20081;-77
2022/10/31 08:09:52;;;;;;;12.82;9.32;;;;;;;;;;5007883;28;20087;-77
2022/10/31 08:12:21;;;;;;;;;;;;;;;;;;5005151;28;20045;-77
2022/10/31 08:14:47;;;;;;;11.20;9.25;;;;;;;;;;5003948;28;20340;-77
2022/10/31 08:17:16;;;;;;;10.32;9.32;;;;;;;;;;5006754;28;20049;-77
2022/10/31 08:19:53;;;;;;;11.75;9.93;;;;;;;;;;5004603;28;20129;-77
2022/10/31 08:22:23;;;;;;;12.82;10.20;;;;;;;;;;4991082;28;20030;-77
2022/10/31 08:24:49;;;;;;;12.00;9.88;;;;;;;;;;5002541;28;20038;-77
2022/10/31 08:27:14;;;;;;;10.35;9.35;;;;;;;;;;5007576;28;20116;-77
2022/10/31 08:29:40;;;;;;;10.18;9.25;;;;;;;;;;5005198;28;20030;-77
2022/10/31 08:32:06;;;;;;;10.20;9.20;;;;;;;;;;5005122;28;20038;-62
2022/10/31 08:34:50;;;;;;;9.77;8.98;;;;;;;;;;5005331;28;20041;-76
2022/10/31 08:37:39;;;;;;;10.63;9.63;;;;;;;;;;5009930;28;20125;-76
2022/10/31 08:40:06;;;;;;;10.68;9.38;;;;;;;;;;5013054;28;20034;-76
2022/10/31 08:42:34;;;;;;;10.48;9.57;;;;;;;;;;5006221;28;20067;-77
2022/10/31 08:45:00;;;;;;;10.27;9.30;;;;;;;;;;5000240;28;20045;-79
2022/10/31 08:47:27;;;;;;;10.77;9.73;;;;;;;;;;5001944;28;20029;-77
2022/10/31 08:49:53;;;;;;;10.45;9.60;;;;;;;;;;5006443;28;20060;-77
2022/10/31 08:52:22;;;;;;;13.20;9.82;;;;;;;;;;5003917;28;20505;-75
2022/10/31 08:54:49;;;;;;;12.27;9.50;;;;;;;;;;5008075;28;20045;-77
2022/10/31 08:57:33;;;;;;;10.85;9.65;;;;;;;;;;4999810;28;20076;-77
2022/10/31 08:59:58;;;;;;;10.20;9.30;;;;;;;;;;5004138;28;20050;-77
2022/10/31 09:02:30;;;;;;;13.27;9.70;;;;;;;;;;5005675;28;20034;-77
2022/10/31 09:04:58;;;;;;;12.65;8.98;;;;;;;;;;5005196;28;20053;-76
2022/10/31 09:07:24;;;;;;;17.55;10.07;;;;;;;;;;5003550;28;20037;-76
2022/10/31 09:09:50;;;;;;;10.80;8.90;;;;;;;;;;5006313;28;20040;-76
2022/10/31 09:12:17;;;;;;;11.07;9.98;;;;;;;;;;5001324;28;20421;-76
2022/10/31 09:15:06;;;;;;;9.82;8.93;;;;;;;;;;5013647;28;20103;-76
2022/10/31 09:17:38;;;;;;;13.68;9.20;;;;;;;;;;5006834;28;20038;-76
2022/10/31 09:20:22;;;;;;;10.13;9.13;;;;;;;;;;4999283;28;20061;-76
2022/10/31 09:22:56;;;;;;;10.15;9.25;;;;;;;;;;5004128;28;20107;-76
2022/10/31 09:25:22;;;;;;;10.20;9.27;;;;;;;;;;4999703;28;20385;-75
2022/10/31 09:28:05;;;;;;;13.13;9.55;;;;;;;;;;5004397;28;20120;-76
2022/10/31 09:30:33;;;;;;;10.63;9.63;;;;;;;;;;5018029;28;20037;-76
2022/10/31 09:33:00;;;;;;;10.20;9.30;;;;;;;;;;5002067;28;20042;-76
2022/10/31 09:35:27;;;;;;;11.55;9.63;;;;;;;;;;4998381;28;20105;-76
2022/10/31 09:37:55;;;;;;;15.20;9.32;;;;;;;;;;5004980;28;20041;-76
2022/10/31 09:40:24;;;;;;;10.30;9.25;;;;;;;;;;5003389;28;20065;-76
2022/10/31 09:43:12;;;;;;;9.93;8.82;;;;;;;;;;5013357;28;20041;-76
2022/10/31 09:45:59;;;;;;;10.38;9.27;;;;;;;;;;5003909;28;20095;-76
2022/10/31 09:48:45;;;;;;;11.13;9.63;;;;;;;;;;5003059;28;20026;-76
2022/10/31 09:51:24;;;;;;;10.20;9.30;;;;;;;;;;5001732;28;20353;-77
2022/10/31 09:54:19;;;;;;;11.63;9.13;;;;;;;;;;5013464;28;20084;-76
2022/10/31 09:56:45;;;;;;;12.45;8.93;;;;;;;;;;5002029;28;20469;-76
2022/10/31 09:59:21;;;;;;;12.82;9.57;;;;;;;;;;5003452;28;20081;-76
2022/10/31 10:01:53;;;;;;;9.75;8.82;;;;;;;;;;5004012;28;20428;-75
2022/10/31 10:04:30;;;;;;;14.02;9.13;;;;;;;;;;4991463;28;20038;-76
2022/10/31 10:07:14;;;;;;;12.27;9.20;;;;;;;;;;5002387;28;20092;-76
2022/10/31 10:09:42;;;;;;;11.32;9.10;;;;;;;;;;5007375;28;20045;-76
2022/10/31 10:12:31;;;;;;;10.43;9.27;;;;;;;;;;5005672;28;20104;-76
2022/10/31 10:15:35;;;;;;;18.55;9.63;;;;;;;;;;5002354;28;20367;-77
2022/10/31 10:18:23;;;;;;;11.02;9.20;;;;;;;;;;5021244;28;20046;-76
2022/10/31 10:21:13;;;;;;;10.30;9.40;;;;;;;;;;5004315;28;20042;-77
2022/10/31 10:24:29;;;;;;;9.60;8.70;;;;;;;;;;4997395;28;20061;-76
2022/10/31 10:27:14;;;;;;;9.23;8.32;;;;;;;;;;4966683;28;20189;-76
2022/10/31 10:29:50;;;;;;;10.25;9.02;;;;;;;;;;4965994;28;20046;-76
2022/10/31 10:32:29;;;;;;;10.25;9.35;;;;;;;;;;4963506;28;20681;-77
2022/10/31 10:35:17;;;;;;;12.40;9.20;;;;;;;;;;4963954;28;20038;-77
2022/10/31 10:37:46;;;;;;;10.63;9.50;;;;;;;;;;4968989;28;20047;-77
2022/10/31 10:40:18;;;;;;;13.20;9.07;;;;;;;;;;4933747;28;20820;-77
2022/10/31 10:43:18;;;;;;;10.27;8.85;;;;;;;;;;4965104;28;20054;-77
2022/10/31 10:48:44;;;;;;;14.07;9.88;;;;;;;;;;4961861;28;20039;-76
2022/10/31 10:51:27;;;;;;;12.88;9.25;;;;;;;;;;4973383;28;20234;-76
2022/10/31 10:54:04;;;;;;;10.05;9.02;;;;;;;;;;4967312;28;20118;-76
2022/10/31 10:56:43;;;;;;;10.68;9.25;;;;;;;;;;4970152;28;20042;-75
2022/10/31 10:59:16;;;;;;;10.57;9.60;;;;;;;;;;4970101;28;20037;-75
2022/10/31 11:01:41;;;;;;;13.07;9.23;;;;;;;;;;4978342;28;20044;-77
2022/10/31 11:04:21;;;;;;;10.35;9.45;;;;;;;;;;5009580;28;20042;-77
2022/10/31 11:06:57;;;;;;;13.48;9.40;;;;;;;;;;5009670;28;20034;-77
2022/10/31 11:09:23;;;;;;;11.70;9.27;;;;;;;;;;5012027;28;20030;-77
2022/10/31 11:11:49;;;;;;;12.77;9.38;;;;;;;;;;5008515;28;20044;-77
2022/10/31 11:14:17;;;;;;;14.00;10.07;;;;;;;;;;5005718;28;20468;-77
2022/10/31 11:16:48;;;;;;;16.33;10.57;;;;;;;;;;5011493;28;20037;-77
2022/10/31 11:19:20;;;;;;;11.70;9.48;;;;;;;;;;5010525;28;20052;-77
2022/10/31 11:21:46;;;;;;;11.85;9.15;;;;;;;;;;5004950;28;20038;-77
2022/10/31 11:24:15;;;;;;;12.02;9.18;;;;;;;;;;5005077;28;20382;-77
2022/10/31 11:26:43;;;;;;;12.23;9.02;;;;;;;;;;5011442;28;20113;-77
2022/10/31 11:29:16;;;;;;;9.77;8.77;;;;;;;;;;5007296;28;20034;-76
2022/10/31 11:31:44;;;;;;;16.67;9.90;;;;;;;;;;5008061;28;20030;-77
2022/10/31 11:34:16;;;;;;;13.50;9.70;;;;;;;;;;5010995;28;20034;-77
2022/10/31 11:36:44;;;;;;;12.38;8.82;;;;;;;;;;5007805;28;20132;-77
2022/10/31 11:39:21;;;;;;;13.63;8.85;;;;;;;;;;5011130;28;20057;-77
2022/10/31 11:41:47;;;;;;;10.25;9.35;;;;;;;;;;5010029;28;20030;-77
2022/10/31 11:44:26;;;;;;;12.15;8.77;;;;;;;;;;5010305;28;20065;-77
2022/10/31 11:46:54;;;;;;;;;;;;;;;;;;5007828;28;20479;-77
2022/10/31 11:49:32;;;;;;;16.83;10.23;;;;;;;;;;5007639;28;20435;-77
2022/10/31 11:52:01;;;;;;;10.45;9.32;;;;;;;;;;5007005;28;20113;-76
2022/10/31 11:54:31;;;;;;;9.90;9.00;;;;;;;;;;5000763;28;20042;-76
2022/10/31 11:56:57;;;;;;;12.23;9.48;;;;;;;;;;5014638;28;20040;-76
2022/10/31 11:59:28;;;;;;;12.15;10.00;;;;;;;;;;5012978;28;20025;-75
2022/10/31 12:01:56;;;;;;;10.68;9.68;;;;;;;;;;5010331;28;20042;-76
2022/10/31 12:04:31;;;;;;;11.48;9.13;;;;;;;;;;5007123;28;20064;-77
2022/10/31 12:06:57;;;;;;;14.07;9.93;;;;;;;;;;5007203;28;20446;-77
2022/10/31 12:09:28;;;;;;;13.25;9.45;;;;;;;;;;5010274;28;20117;-77
2022/10/31 12:12:48;;;;;;;14.95;9.23;;;;;;;;;;5003053;28;20069;-78
2022/10/31 12:15:20;;;;;;;15.77;9.90;;;;;;;;;;4990460;28;20042;-77
2022/10/31 12:17:57;;;;;;;10.77;9.57;;;;;;;;;;5005408;28;20038;-78
2022/10/31 12:20:47;;;;;;;10.48;9.40;;;;;;;;;;5006953;28;20033;-77
2022/10/31 12:23:40;;;;;;;15.23;9.32;;;;;;;;;;5005368;28;20489;-77
2022/10/31 12:26:25;;;;;;;14.43;9.68;;;;;;;;;;5006943;28;20056;-77
2022/10/31 12:28:56;;;;;;;15.02;10.48;;;;;;;;;;5008989;28;20169;-77
2022/10/31 12:31:35;;;;;;;10.95;9.88;;;;;;;;;;5009205;28;20037;-76
2022/10/31 12:34:31;;;;;;;12.43;10.25;;;;;;;;;;5006877;28;20091;-77
2022/10/31 12:37:24;;;;;;;11.35;10.00;;;;;;;;;;5008774;28;20095;-77
2022/10/31 12:40:26;;;;;;;12.25;9.73;;;;;;;;;;5007657;28;20039;-76
2022/10/31 12:43:08;;;;;;;10.70;9.63;;;;;;;;;;5009187;28;20060;-76
2022/10/31 12:45:51;;;;;;;15.65;9.50;;;;;;;;;;5005428;28;20121;-77
2022/10/31 12:48:51;;;;;;;12.23;9.25;;;;;;;;;;5008256;28;20389;-76
2022/10/31 12:51:50;;;;;;;10.65;9.18;;;;;;;;;;5004371;28;20066;-76
2022/10/31 12:54:39;;;;;;;12.15;9.50;;;;;;;;;;5008533;28;20025;-76
2022/10/31 12:57:26;;;;;;;10.98;9.48;;;;;;;;;;5007409;28;20045;-77
2022/10/31 13:00:00;;;;;;;12.25;9.27;;;;;;;;;;5007093;28;20133;-76
2022/10/31 13:02:39;;;;;;;10.18;9.18;;;;;;;;;;5010036;28;20030;-76
2022/10/31 13:05:11;;;;;;;14.23;9.93;;;;;;;;;;5007426;28;20140;-77
2022/10/31 13:07:39;;;;;;;12.95;9.82;;;;;;;;;;5010673;28;20120;-76
2022/10/31 13:10:14;;;;;;;12.50;9.52;;;;;;;;;;5008013;28;20088;-76
2022/10/31 13:12:42;;;;;;;13.60;10.35;;;;;;;;;;5008350;28;20047;-76
2022/10/31 13:15:21;;;;;;;14.88;10.38;;;;;;;;;;5009272;28;20440;-76
2022/10/31 13:17:54;;;;;;;10.18;9.15;;;;;;;;;;5005330;28;20046;-76
2022/10/31 13:20:32;;;;;;;11.82;9.70;;;;;;;;;;5008376;28;20049;-77
2022/10/31 13:23:23;;;;;;;12.05;9.60;;;;;;;;;;5008130;28;20038;-77
2022/10/31 13:25:53;;;;;;;11.25;9.70;;;;;;;;;;5004490;28;20088;-78
2022/10/31 13:28:34;;;;;;;15.00;10.13;;;;;;;;;;5007753;28;20045;-77
2022/10/31 13:31:01;;;;;;;15.00;9.95;;;;;;;;;;5006303;28;20029;-77
2022/10/31 13:33:34;;;;;;;12.70;9.55;;;;;;;;;;5007880;28;20038;-76
2022/10/31 13:36:19;;;;;;;13.90;9.15;;;;;;;;;;5009722;28;20026;-77
2022/10/31 13:38:59;;;;;;;14.90;9.23;;;;;;;;;;5008555;28;20061;-76
2022/10/31 13:41:36;;;;;;;13.90;10.40;;;;;;;;;;5005875;28;20037;-76
2022/10/31 13:44:21;;;;;;;12.65;10.07;;;;;;;;;;5009933;28;20038;-77
2022/10/31 13:46:47;;;;;;;12.20;9.50;;;;;;;;;;4998327;28;20124;-76
2022/10/31 13:49:39;;;;;;;15.13;10.88;;;;;;;;;;5006251;28;20120;-77
2022/10/31 13:52:11;;;;;;;9.82;8.85;;;;;;;;;;4999468;28;20117;-77
2022/10/31 13:54:47;;;;;;;10.98;8.85;;;;;;;;;;5006178;28;20041;-77
2022/10/31 13:57:31;;;;;;;14.63;9.68;;;;;;;;;;5010280;28;20026;-75
2022/10/31 14:00:18;;;;;;;15.68;10.80;;;;;;;;;;5009825;28;20087;-77
2022/10/31 14:02:48;;;;;;;14.75;9.77;;;;;;;;;;5004576;28;20531;-77
2022/10/31 14:05:31;;;;;;;10.80;9.73;;;;;;;;;;5011227;28;20187;-77
2022/10/31 14:08:00;;;;;;;12.48;9.90;;;;;;;;;;5013908;28;20254;-77
2022/10/31 14:10:32;;;;;;;11.20;10.10;;;;;;;;;;5012089;28;20046;-76
2022/10/31 14:13:15;;;;;;;12.10;10.85;;;;;;;;;;5010143;28;20081;-76
2022/10/31 14:15:52;;;;;;;11.65;10.45;;;;;;;;;;5014185;28;20397;-76
2022/10/31 14:18:23;;;;;;;14.02;9.75;;;;;;;;;;5010085;28;20489;-76
2022/10/31 14:20:49;;;;;;;10.27;9.30;;;;;;;;;;5013198;28;20172;-76
2022/10/31 14:23:30;;;;;;;17.10;10.88;;;;;;;;;;5014642;28;20065;-76
2022/10/31 14:26:28;;;;;;;13.15;9.95;;;;;;;;;;5015431;28;20548;-76
2022/10/31 14:29:13;;;;;;;11.95;9.85;;;;;;;;;;5012034;28;20042;-76
2022/10/31 14:31:43;;;;;;;19.80;9.82;;;;;;;;;;4996234;28;20049;-76
2022/10/31 14:34:11;;;;;;;12.52;9.88;;;;;;;;;;5004484;28;20053;-76
2022/10/31 14:36:49;;;;;;;12.13;10.30;;;;;;;;;;5008137;28;20034;-76
2022/10/31 14:39:24;;;;;;;13.73;10.18;;;;;;;;;;5004599;28;20052;-76
2022/10/31 14:42:21;;;;;;;14.45;9.63;;;;;;;;;;5010434;28;20072;-76
2022/10/31 14:45:00;;;;;;;14.88;9.60;;;;;;;;;;5007024;28;20137;-76
2022/10/31 14:47:38;;;;;;;;;;;;;;;;;;5011681;28;20045;-77
2022/10/31 14:50:25;;;;;;;12.48;10.23;;;;;;;;;;4994233;28;19916;-77
2022/10/31 14:52:57;;;;;;;11.13;9.63;;;;;;;;;;5005310;28;20034;-77
2022/10/31 14:55:24;;;;;;;12.30;9.27;;;;;;;;;;5003043;28;20083;-77
2022/10/31 14:58:01;;;;;;;13.88;9.43;;;;;;;;;;5007333;28;20131;-77
2022/10/31 15:00:28;;;;;;;14.82;9.48;;;;;;;;;;5008685;28;20038;-77
2022/10/31 15:03:14;;;;;;;12.85;9.02;;;;;;;;;;5011039;28;20038;-77
2022/10/31 15:05:51;;;;;;;15.25;9.63;;;;;;;;;;5009724;28;20041;-76